createdAt,value
2023-02-16T00:01:59.834Z,42.56
2023-02-16T00:04:28.874Z,42.24
2023-02-16T00:06:56.414Z,42.48
2023-02-16T00:09:24.249Z,42.14
2023-02-16T00:12:11.253Z,42.52
2023-02-16T00:14:39.568Z,42.31
2023-02-16T00:17:06.613Z,42.01
2023-02-16T00:19:38.937Z,42.37
2023-02-16T00:22:07.120Z,42.30
2023-02-16T00:24:34.736Z,42.69
2023-02-16T00:27:02.016Z,42.22
2023-02-16T00:29:33.784Z,42.85
2023-02-16T00:32:01.954Z,42.26
2023-02-16T00:34:36.794Z,42.95
2023-02-16T00:37:08.492Z,42.57
2023-02-16T00:39:35.898Z,42.22
2023-02-16T00:42:12.750Z,42.89
2023-02-16T00:44:48.366Z,42.59
2023-02-16T00:47:37.378Z,43.17
2023-02-16T00:50:16.132Z,42.59
2023-02-16T00:52:43.149Z,42.35
2023-02-16T00:55:12.323Z,42.98
2023-02-16T00:58:12.461Z,43.11
2023-02-16T01:00:46.313Z,42.78
2023-02-16T01:03:23.976Z,42.97
2023-02-16T01:06:11.009Z,42.26
2023-02-16T01:08:58.496Z,42.34
2023-02-16T01:11:25.585Z,42.41
2023-02-16T01:13:53.656Z,43.00
2023-02-16T01:16:26.068Z,43.00
2023-02-16T01:18:52.948Z,42.76
2023-02-16T01:21:20.006Z,42.69
2023-02-16T01:23:46.358Z,42.71
2023-02-16T01:26:17.092Z,42.84
2023-02-16T01:28:44.419Z,42.88
2023-02-16T01:31:12.342Z,42.64
2023-02-16T01:33:39.057Z,42.77
2023-02-16T01:36:06.789Z,43.05
2023-02-16T01:38:33.142Z,42.88
2023-02-16T01:41:24.657Z,43.76
2023-02-16T01:43:58.410Z,43.16
2023-02-16T01:46:32.976Z,42.97
2023-02-16T01:48:59.996Z,42.78
2023-02-16T01:51:36.394Z,43.34
2023-02-16T01:54:17.572Z,43.11
2023-02-16T01:56:50.805Z,43.02
2023-02-16T01:59:44.206Z,43.32
2023-02-16T02:02:23.108Z,43.29
2023-02-16T02:05:17.030Z,43.21
2023-02-16T02:07:52.828Z,43.26
2023-02-16T02:10:22.190Z,43.09
2023-02-16T02:13:13.466Z,43.40
2023-02-16T02:15:40.186Z,43.31
2023-02-16T02:18:09.035Z,43.42
2023-02-16T02:21:24.771Z,43.99
2023-02-16T02:24:20.339Z,44.24
2023-02-16T02:27:01.437Z,44.18
2023-02-16T02:29:58.310Z,44.10
2023-02-16T02:32:55.794Z,44.22
2023-02-16T02:35:51.826Z,44.21
2023-02-16T02:38:30.004Z,44.19
2023-02-16T02:41:08.467Z,43.53
2023-02-16T02:43:41.264Z,44.34
2023-02-16T02:46:12.993Z,43.36
2023-02-16T02:48:39.698Z,43.62
2023-02-16T02:51:27.793Z,44.01
2023-02-16T02:54:23.720Z,43.57
2023-02-16T02:57:25.967Z,44.33
2023-02-16T03:00:20.602Z,44.04
2023-02-16T03:02:50.840Z,43.64
2023-02-16T03:05:18.885Z,44.39
2023-02-16T03:07:48.096Z,44.54
2023-02-16T03:10:45.162Z,44.09
2023-02-16T03:13:14.979Z,44.42
2023-02-16T03:15:43.648Z,44.10
2023-02-16T03:18:31.456Z,44.85
2023-02-16T03:21:17.570Z,44.58
2023-02-16T03:24:03.825Z,44.67
2023-02-16T03:26:51.094Z,44.36
2023-02-16T03:29:22.635Z,44.33
2023-02-16T03:31:51.772Z,44.92
2023-02-16T03:34:19.441Z,44.98
2023-02-16T03:36:50.444Z,44.55
2023-02-16T03:39:18.895Z,44.73
2023-02-16T03:41:50.365Z,45.20
2023-02-16T03:44:17.553Z,44.37
2023-02-16T03:46:44.961Z,44.60
2023-02-16T03:49:12.064Z,44.46
2023-02-16T03:51:38.637Z,44.58
2023-02-16T03:54:04.952Z,44.88
2023-02-16T03:56:31.361Z,44.10
2023-02-16T03:58:57.920Z,44.21
2023-02-16T04:01:24.405Z,44.46
2023-02-16T04:03:50.801Z,44.28
2023-02-16T04:06:17.336Z,44.39
2023-02-16T04:08:43.828Z,44.23
2023-02-16T04:11:28.637Z,44.37
2023-02-16T04:13:54.963Z,44.84
2023-02-16T04:16:21.304Z,44.70
2023-02-16T04:18:47.723Z,44.35
2023-02-16T04:21:14.313Z,44.82
2023-02-16T04:23:40.850Z,44.70
2023-02-16T04:26:07.219Z,44.50
2023-02-16T04:28:33.642Z,44.41
2023-02-16T04:31:00.138Z,44.35
2023-02-16T04:33:26.773Z,45.21
2023-02-16T04:35:53.369Z,44.78
2023-02-16T04:38:19.726Z,45.17
2023-02-16T04:40:46.340Z,45.24
2023-02-16T04:43:13.977Z,44.90
2023-02-16T04:45:40.265Z,45.47
2023-02-16T04:48:08.446Z,44.78
2023-02-16T04:50:36.845Z,44.61
2023-02-16T04:53:03.352Z,45.50
2023-02-16T04:55:31.012Z,44.90
2023-02-16T04:57:57.671Z,44.73
2023-02-16T05:00:24.106Z,45.53
2023-02-16T05:02:55.884Z,45.57
2023-02-16T05:05:22.521Z,45.18
2023-02-16T05:07:49.143Z,45.52
2023-02-16T05:10:15.579Z,45.17
2023-02-16T05:13:00.332Z,45.27
2023-02-16T05:15:27.133Z,45.50
2023-02-16T05:17:54.962Z,44.93
2023-02-16T05:20:41.345Z,45.09
2023-02-16T05:23:07.954Z,44.39
2023-02-16T05:25:34.338Z,45.03
2023-02-16T05:28:01.065Z,44.42
2023-02-16T05:30:27.615Z,44.83
2023-02-16T05:32:59.275Z,44.44
2023-02-16T05:35:25.654Z,44.36
2023-02-16T05:37:53.350Z,45.45
2023-02-16T05:40:20.156Z,45.28
2023-02-16T05:42:47.323Z,45.26
2023-02-16T05:45:14.133Z,44.88
2023-02-16T05:47:40.781Z,45.26
2023-02-16T05:50:07.839Z,44.85
2023-02-16T05:52:43.287Z,45.59
2023-02-16T05:55:11.318Z,45.73
2023-02-16T05:57:37.971Z,45.62
2023-02-16T06:00:05.888Z,45.00
2023-02-16T06:02:32.225Z,45.33
2023-02-16T06:05:01.896Z,45.20
2023-02-16T06:07:34.039Z,46.59
2023-02-16T06:10:00.967Z,45.96
2023-02-16T06:12:31.972Z,45.59
2023-02-16T06:14:58.420Z,46.28
2023-02-16T06:17:25.608Z,46.14
2023-02-16T06:20:02.121Z,46.17
2023-02-16T06:22:34.510Z,46.51
2023-02-16T06:25:02.458Z,45.17
2023-02-16T06:27:31.293Z,46.01
2023-02-16T06:29:59.406Z,45.63
2023-02-16T06:32:28.438Z,45.48
2023-02-16T06:35:01.105Z,45.76
2023-02-16T06:37:27.875Z,45.49
2023-02-16T06:39:54.689Z,44.92
2023-02-16T06:42:21.304Z,45.02
2023-02-16T06:44:48.083Z,45.14
2023-02-16T06:47:14.786Z,45.43
2023-02-16T06:49:41.266Z,45.38
2023-02-16T06:52:07.850Z,45.41
2023-02-16T06:54:34.259Z,45.21
2023-02-16T06:57:00.823Z,45.56
2023-02-16T06:59:27.346Z,45.69
2023-02-16T07:01:58.781Z,45.35
2023-02-16T07:04:29.144Z,45.70
2023-02-16T07:06:55.774Z,45.65
2023-02-16T07:09:22.142Z,45.57
2023-02-16T07:11:53.197Z,45.71
2023-02-16T07:14:22.070Z,45.49
2023-02-16T07:16:48.582Z,45.74
2023-02-16T07:19:15.050Z,45.74
2023-02-16T07:21:41.519Z,45.84
2023-02-16T07:24:08.931Z,45.77
2023-02-16T07:26:38.670Z,45.56
2023-02-16T07:29:05.644Z,45.29
2023-02-16T07:31:33.899Z,45.64
2023-02-16T07:34:01.071Z,45.16
2023-02-16T07:36:27.843Z,45.37
2023-02-16T07:38:55.024Z,45.25
2023-02-16T07:41:22.379Z,44.95
2023-02-16T07:43:48.901Z,44.70
2023-02-16T07:46:15.202Z,44.69
2023-02-16T07:48:43.982Z,45.21
2023-02-16T07:51:32.979Z,45.23
2023-02-16T07:54:00.692Z,44.92
2023-02-16T07:56:30.341Z,44.92
2023-02-16T07:58:58.549Z,44.89
2023-02-16T08:01:25.518Z,44.56
2023-02-16T08:03:58.064Z,45.21
2023-02-16T08:06:24.510Z,44.83
2023-02-16T08:08:50.956Z,44.54
2023-02-16T08:11:22.880Z,44.80
2023-02-16T08:13:49.873Z,44.52
2023-02-16T08:16:24.814Z,44.63
2023-02-16T08:18:53.072Z,45.25
2023-02-16T08:21:23.733Z,44.39
2023-02-16T08:24:01.884Z,44.40
2023-02-16T08:26:33.197Z,44.41
2023-02-16T08:29:03.653Z,44.02
2023-02-16T08:31:31.882Z,44.36
2023-02-16T08:34:01.403Z,44.32
2023-02-16T08:36:35.038Z,44.54
2023-02-16T08:39:04.170Z,44.62
2023-02-16T08:41:36.402Z,43.94
2023-02-16T08:44:04.398Z,43.95
2023-02-16T08:46:35.603Z,43.27
2023-02-16T08:49:05.430Z,43.46
2023-02-16T08:51:35.092Z,43.73
2023-02-16T08:54:05.844Z,43.42
2023-02-16T08:56:37.353Z,43.11
2023-02-16T08:59:04.470Z,43.26
2023-02-16T09:01:31.428Z,42.87
2023-02-16T09:03:58.933Z,43.16
2023-02-16T09:06:25.662Z,42.80
2023-02-16T09:08:57.651Z,42.74
2023-02-16T09:11:32.233Z,42.33
2023-02-16T09:13:59.220Z,42.03
2023-02-16T09:16:31.546Z,41.81
2023-02-16T09:19:02.575Z,42.13
2023-02-16T09:21:33.145Z,41.92
2023-02-16T09:24:04.722Z,41.31
2023-02-16T09:26:38.254Z,41.21
2023-02-16T09:29:06.279Z,41.87
2023-02-16T09:31:35.570Z,41.46
2023-02-16T09:34:07.289Z,41.22
2023-02-16T09:36:34.121Z,41.86
2023-02-16T09:39:02.217Z,41.61
2023-02-16T09:41:40.420Z,40.66
2023-02-16T09:44:19.084Z,40.55
2023-02-16T09:46:54.270Z,40.87
2023-02-16T09:49:30.620Z,40.44
2023-02-16T09:52:11.687Z,40.28
2023-02-16T09:54:47.623Z,40.04
2023-02-16T09:57:38.615Z,40.21
2023-02-16T10:00:43.576Z,39.88
2023-02-16T10:03:48.073Z,40.11
2023-02-16T10:06:57.273Z,39.97
2023-02-16T10:09:27.177Z,40.62
2023-02-16T10:12:11.108Z,40.00
2023-02-16T10:14:47.093Z,39.85
2023-02-16T10:17:33.721Z,39.86
2023-02-16T10:20:16.874Z,39.74
2023-02-16T10:23:01.109Z,39.52
2023-02-16T10:25:44.052Z,39.28
2023-02-16T10:28:28.005Z,39.37
2023-02-16T10:31:13.418Z,39.53
2023-02-16T10:33:44.065Z,39.76
2023-02-16T10:36:29.587Z,38.92
2023-02-16T10:39:22.626Z,38.94
2023-02-16T10:42:12.850Z,39.08
2023-02-16T10:44:54.068Z,39.20
2023-02-16T10:47:33.460Z,38.43
2023-02-16T10:50:00.686Z,39.23
2023-02-16T10:52:33.810Z,38.93
2023-02-16T10:55:00.546Z,39.20
2023-02-16T10:57:30.873Z,38.96
2023-02-16T11:00:01.887Z,39.13
2023-02-16T11:02:35.309Z,38.85
2023-02-16T11:05:01.882Z,39.14
2023-02-16T11:07:31.484Z,38.84
2023-02-16T11:10:02.889Z,38.85
2023-02-16T11:12:32.482Z,38.80
2023-02-16T11:15:04.517Z,38.70
2023-02-16T11:17:47.365Z,38.16
2023-02-16T11:20:51.480Z,38.53
2023-02-16T11:23:28.325Z,38.33
2023-02-16T11:26:11.699Z,38.48
2023-02-16T11:28:39.350Z,38.66
2023-02-16T11:31:14.206Z,38.33
2023-02-16T11:33:43.204Z,38.98
2023-02-16T11:36:33.231Z,38.09
2023-02-16T11:39:09.760Z,38.95
2023-02-16T11:41:37.803Z,38.96
2023-02-16T11:44:04.574Z,38.72
2023-02-16T11:46:40.824Z,38.89
2023-02-16T11:49:29.443Z,38.59
2023-02-16T11:51:56.043Z,38.86
2023-02-16T11:54:22.830Z,39.00
2023-02-16T11:57:06.669Z,38.52
2023-02-16T11:59:37.329Z,38.99
2023-02-16T12:02:58.604Z,39.22
2023-02-16T12:05:38.933Z,39.14
2023-02-16T12:08:11.028Z,38.87
2023-02-16T12:11:08.512Z,38.50
2023-02-16T12:14:14.216Z,38.63
2023-02-16T12:17:27.768Z,38.80
2023-02-16T12:19:58.716Z,38.69
2023-02-16T12:22:48.046Z,38.34
2023-02-16T12:25:27.091Z,38.16
2023-02-16T12:28:14.811Z,38.14
2023-02-16T12:30:56.320Z,38.67
2023-02-16T12:33:48.144Z,38.49
2023-02-16T12:36:32.948Z,38.78
2023-02-16T12:39:12.643Z,38.83
2023-02-16T12:42:03.053Z,38.90
2023-02-16T12:44:53.780Z,38.97
2023-02-16T12:47:34.880Z,40.02
2023-02-16T12:50:14.810Z,39.73
2023-02-16T12:52:46.392Z,40.04
2023-02-16T12:55:27.699Z,40.50
2023-02-16T12:58:01.670Z,40.21
2023-02-16T13:00:47.732Z,40.81
2023-02-16T13:03:35.283Z,40.74
2023-02-16T13:06:13.359Z,40.69
2023-02-16T13:08:44.874Z,41.01
2023-02-16T13:11:21.304Z,41.09
2023-02-16T13:13:52.019Z,40.86
2023-02-16T13:16:30.360Z,41.28
2023-02-16T13:18:57.930Z,41.49
2023-02-16T13:21:51.293Z,41.96
2023-02-16T13:24:36.571Z,41.33
2023-02-16T13:27:28.071Z,41.64
2023-02-16T13:30:17.474Z,41.40
2023-02-16T13:33:01.069Z,41.94
2023-02-16T13:35:49.136Z,42.04
2023-02-16T13:38:46.470Z,42.09
2023-02-16T13:41:31.789Z,41.71
2023-02-16T13:44:05.684Z,41.64
2023-02-16T13:46:37.283Z,41.58
2023-02-16T13:49:04.470Z,41.97
2023-02-16T13:51:43.344Z,41.91
2023-02-16T13:54:30.264Z,41.87
2023-02-16T13:56:56.899Z,41.55
2023-02-16T13:59:24.987Z,41.47
2023-02-16T14:01:56.791Z,41.73
2023-02-16T14:04:23.176Z,41.77
2023-02-16T14:06:52.152Z,41.73
2023-02-16T14:09:19.309Z,41.88
2023-02-16T14:11:54.655Z,42.26
2023-02-16T14:14:34.014Z,42.56
2023-02-16T14:17:19.625Z,42.46
2023-02-16T14:19:51.931Z,42.13
2023-02-16T14:22:40.874Z,42.31
2023-02-16T14:25:22.342Z,42.30
2023-02-16T14:27:56.688Z,42.49
2023-02-16T14:30:45.869Z,42.67
2023-02-16T14:33:15.830Z,42.29
2023-02-16T14:36:00.347Z,43.01
2023-02-16T14:38:43.020Z,42.59
2023-02-16T14:41:24.240Z,42.85
2023-02-16T14:43:55.494Z,42.11
2023-02-16T14:46:59.138Z,43.06
2023-02-16T14:49:55.316Z,42.44
2023-02-16T14:53:00.602Z,42.64
2023-02-16T14:55:57.236Z,42.12
2023-02-16T14:58:41.613Z,42.30
2023-02-16T15:01:16.774Z,42.77
2023-02-16T15:03:50.111Z,43.07
2023-02-16T15:06:40.029Z,42.95
2023-02-16T15:09:15.823Z,42.99
2023-02-16T15:12:09.295Z,42.89
2023-02-16T15:14:42.880Z,43.21
2023-02-16T15:17:10.900Z,42.78
2023-02-16T15:19:37.586Z,42.72
2023-02-16T15:22:18.911Z,43.10
2023-02-16T15:24:58.529Z,43.20
2023-02-16T15:27:25.965Z,43.21
2023-02-16T15:30:24.431Z,43.59
2023-02-16T15:33:02.607Z,43.57
2023-02-16T15:35:41.452Z,43.99
2023-02-16T15:38:20.377Z,43.53
2023-02-16T15:40:48.349Z,43.58
2023-02-16T15:43:37.567Z,43.26
2023-02-16T15:46:15.130Z,43.67
2023-02-16T15:48:41.533Z,42.87
2023-02-16T15:51:28.976Z,43.44
2023-02-16T15:53:59.344Z,43.07
2023-02-16T15:56:47.240Z,43.46
2023-02-16T15:59:38.561Z,43.70
2023-02-16T16:02:24.600Z,43.65
2023-02-16T16:04:55.605Z,43.16
2023-02-16T16:07:35.761Z,43.61
2023-02-16T16:10:08.422Z,43.13
2023-02-16T16:12:36.214Z,43.69
2023-02-16T16:15:04.387Z,43.57
2023-02-16T16:17:33.756Z,43.62
2023-02-16T16:20:27.377Z,43.91
2023-02-16T16:23:20.378Z,44.16
2023-02-16T16:25:48.632Z,43.65
2023-02-16T16:28:36.778Z,44.09
2023-02-16T16:31:12.664Z,43.82
2023-02-16T16:33:59.365Z,43.96
2023-02-16T16:36:32.830Z,43.85
2023-02-16T16:39:19.780Z,44.02
2023-02-16T16:42:06.856Z,43.44
2023-02-16T16:44:40.920Z,43.58
2023-02-16T16:47:26.971Z,43.69
2023-02-16T16:49:58.261Z,43.49
2023-02-16T16:52:48.307Z,43.89
2023-02-16T16:55:24.373Z,43.82
2023-02-16T16:57:54.124Z,43.52
2023-02-16T17:00:22.156Z,43.47
2023-02-16T17:02:49.065Z,43.50
2023-02-16T17:05:20.880Z,43.53
2023-02-16T17:07:49.862Z,43.35
2023-02-16T17:10:17.920Z,43.57
2023-02-16T17:12:50.857Z,43.56
2023-02-16T17:15:37.616Z,44.03
2023-02-16T17:18:05.757Z,43.38
2023-02-16T17:20:32.238Z,43.42
2023-02-16T17:23:04.380Z,43.57
2023-02-16T17:25:33.478Z,43.50
2023-02-16T17:27:59.920Z,43.04
2023-02-16T17:30:26.731Z,43.74
2023-02-16T17:32:54.926Z,43.41
2023-02-16T17:35:21.797Z,43.50
2023-02-16T17:37:49.651Z,43.24
2023-02-16T17:40:21.308Z,43.29
2023-02-16T17:42:50.043Z,43.38
2023-02-16T17:45:18.486Z,43.53
2023-02-16T17:47:46.818Z,43.09
2023-02-16T17:50:15.495Z,43.14
2023-02-16T17:52:43.247Z,43.01
2023-02-16T17:55:10.664Z,43.09
2023-02-16T17:57:38.844Z,42.89
2023-02-16T18:00:13.503Z,42.63
2023-02-16T18:02:40.856Z,43.02
2023-02-16T18:05:07.757Z,42.94
2023-02-16T18:07:34.237Z,43.05
2023-02-16T18:10:00.745Z,42.83
2023-02-16T18:12:28.500Z,42.89
2023-02-16T18:14:55.028Z,42.95
2023-02-16T18:17:21.402Z,42.90
2023-02-16T18:19:48.936Z,42.73
2023-02-16T18:22:16.584Z,42.30
2023-02-16T18:24:44.326Z,42.83
2023-02-16T18:27:10.683Z,42.27
2023-02-16T18:29:37.151Z,42.25
2023-02-16T18:32:04.311Z,42.30
2023-02-16T18:34:32.419Z,42.61
2023-02-16T18:36:58.784Z,42.35
2023-02-16T18:39:25.163Z,42.54
2023-02-16T18:41:51.506Z,42.65
2023-02-16T18:44:17.828Z,42.61
2023-02-16T18:46:44.212Z,42.85
2023-02-16T18:49:10.604Z,42.84
2023-02-16T18:51:36.990Z,43.45
2023-02-16T18:54:04.938Z,43.42
2023-02-16T18:56:31.403Z,43.25
2023-02-16T18:58:57.986Z,43.79
2023-02-16T19:01:30.263Z,44.22
2023-02-16T19:03:57.192Z,43.63
2023-02-16T19:06:23.666Z,43.98
2023-02-16T19:08:51.345Z,43.93
2023-02-16T19:11:22.102Z,43.85
2023-02-16T19:13:49.262Z,44.30
2023-02-16T19:16:19.102Z,44.06
2023-02-16T19:18:45.708Z,44.21
2023-02-16T19:21:14.086Z,44.62
2023-02-16T19:23:40.990Z,44.18
2023-02-16T19:26:13.426Z,44.36
2023-02-16T19:28:40.694Z,44.51
2023-02-16T19:31:14.854Z,44.46
2023-02-16T19:33:41.444Z,44.33
2023-02-16T19:36:10.169Z,44.69
2023-02-16T19:38:37.400Z,44.85
2023-02-16T19:41:19.211Z,45.18
2023-02-16T19:43:46.357Z,45.08
2023-02-16T19:46:13.305Z,45.13
2023-02-16T19:48:40.102Z,44.93
2023-02-16T19:51:08.295Z,45.23
2023-02-16T19:53:36.706Z,45.45
2023-02-16T19:56:08.435Z,45.65
2023-02-16T19:58:35.337Z,45.37
2023-02-16T20:01:13.821Z,45.93
2023-02-16T20:03:40.543Z,45.54
2023-02-16T20:06:14.431Z,46.20
2023-02-16T20:08:40.740Z,45.63
2023-02-16T20:11:08.295Z,45.61
2023-02-16T20:13:38.026Z,46.39
2023-02-16T20:16:07.871Z,46.85
2023-02-16T20:18:36.426Z,46.42
2023-02-16T20:21:09.330Z,47.50
2023-02-16T20:23:36.354Z,46.41
2023-02-16T20:26:08.922Z,47.41
2023-02-16T20:28:36.077Z,47.08
2023-02-16T20:31:04.237Z,47.13
2023-02-16T20:33:30.711Z,47.01
2023-02-16T20:35:57.092Z,47.35
2023-02-16T20:38:24.718Z,47.11
2023-02-16T20:40:51.576Z,47.54
2023-02-16T20:43:20.830Z,47.62
2023-02-16T20:45:47.796Z,47.75
2023-02-16T20:48:15.652Z,47.70
2023-02-16T20:50:42.385Z,47.84
2023-02-16T20:53:08.885Z,47.89
2023-02-16T20:55:35.662Z,47.95
2023-02-16T20:58:02.397Z,47.88
2023-02-16T21:00:29.702Z,47.97
2023-02-16T21:02:56.053Z,48.15
2023-02-16T21:05:23.260Z,48.21
2023-02-16T21:07:50.109Z,48.04
2023-02-16T21:10:18.966Z,48.20
2023-02-16T21:12:46.430Z,48.09
2023-02-16T21:15:14.102Z,48.35
2023-02-16T21:17:40.437Z,48.23
2023-02-16T21:20:07.845Z,48.36
2023-02-16T21:22:35.546Z,48.43
2023-02-16T21:25:02.044Z,48.60
2023-02-16T21:27:28.393Z,48.48
2023-02-16T21:29:54.978Z,48.82
2023-02-16T21:32:21.409Z,48.93
2023-02-16T21:34:47.800Z,48.70
2023-02-16T21:37:14.611Z,48.82
2023-02-16T21:40:00.270Z,48.99
2023-02-16T21:42:27.224Z,48.91
2023-02-16T21:45:12.490Z,49.22
2023-02-16T21:47:59.077Z,48.90
2023-02-16T21:50:26.521Z,48.80
2023-02-16T21:52:53.379Z,48.87
2023-02-16T21:55:39.224Z,49.03
2023-02-16T21:58:10.972Z,48.88
2023-02-16T22:00:41.609Z,50.20
2023-02-16T22:03:09.330Z,49.16
2023-02-16T22:05:36.597Z,49.32
2023-02-16T22:08:03.234Z,49.54
2023-02-16T22:10:30.715Z,49.27
2023-02-16T22:12:57.836Z,49.42
2023-02-16T22:15:25.939Z,49.61
2023-02-16T22:17:52.668Z,49.81
2023-02-16T22:20:19.493Z,49.78
2023-02-16T22:22:46.107Z,50.06
2023-02-16T22:25:13.367Z,49.96
2023-02-16T22:27:40.263Z,49.99
2023-02-16T22:30:10.333Z,50.12
2023-02-16T22:32:36.999Z,50.12
2023-02-16T22:35:03.894Z,50.13
2023-02-16T22:37:32.483Z,50.38
2023-02-16T22:39:59.955Z,50.02
2023-02-16T22:42:29.270Z,49.41
2023-02-16T22:44:57.054Z,49.75
2023-02-16T22:47:25.855Z,49.69
2023-02-16T22:49:52.171Z,49.78
2023-02-16T22:52:18.742Z,50.20
2023-02-16T22:54:45.357Z,49.90
2023-02-16T22:57:11.758Z,50.14
2023-02-16T22:59:38.654Z,49.97
2023-02-16T23:02:04.983Z,50.07
2023-02-16T23:04:31.602Z,50.32
2023-02-16T23:06:57.945Z,50.50
2023-02-16T23:09:24.545Z,50.59
2023-02-16T23:11:51.163Z,50.36
2023-02-16T23:14:19.173Z,50.48
2023-02-16T23:16:47.419Z,50.65
2023-02-16T23:19:16.901Z,51.28
2023-02-16T23:21:43.860Z,50.52
2023-02-16T23:24:13.904Z,51.28
2023-02-16T23:26:41.331Z,50.69
2023-02-16T23:29:08.340Z,50.95
2023-02-16T23:31:36.417Z,50.86
2023-02-16T23:34:04.853Z,51.18
2023-02-16T23:36:32.415Z,50.90
2023-02-16T23:39:14.192Z,50.98
2023-02-16T23:41:41.520Z,51.20
2023-02-16T23:44:09.540Z,50.90
2023-02-16T23:46:36.069Z,50.69
2023-02-16T23:49:02.428Z,50.91
2023-02-16T23:51:28.822Z,50.91
2023-02-16T23:53:55.905Z,50.72
2023-02-16T23:56:25.160Z,51.04
2023-02-16T23:58:52.767Z,51.06
